createdAt,value
2023-03-22T00:02:16.747Z,50363.57
2023-03-22T00:04:45.327Z,50363.17
2023-03-22T00:07:13.599Z,50363.57
2023-03-22T00:09:42.017Z,50355.57
2023-03-22T00:12:10.182Z,50364.37
2023-03-22T00:14:38.911Z,50360.38
2023-03-22T00:17:07.688Z,50351.98
2023-03-22T00:19:35.908Z,50360.38
2023-03-22T00:22:07.498Z,50352.77
2023-03-22T00:24:35.910Z,50361.18
2023-03-22T00:27:04.500Z,50361.57
2023-03-22T00:29:32.752Z,50370.37
2023-03-22T00:32:00.894Z,50381.16
2023-03-22T00:34:33.605Z,50349.97
2023-03-22T00:37:04.339Z,50356.77
2023-03-22T00:39:32.548Z,50371.57
2023-03-22T00:42:01.366Z,50378.37
2023-03-22T00:44:29.514Z,50355.98
2023-03-22T00:46:58.778Z,50374.37
2023-03-22T00:49:27.973Z,50363.57
2023-03-22T00:51:57.227Z,50374.37
2023-03-22T00:54:25.473Z,50354.77
2023-03-22T00:56:54.012Z,50359.17
2023-03-22T00:59:22.197Z,50361.57
2023-03-22T01:01:50.477Z,50341.57
2023-03-22T01:04:26.232Z,50346.38
2023-03-22T01:07:01.532Z,50365.97
2023-03-22T01:09:33.903Z,50362.77
2023-03-22T01:12:03.780Z,50376.77
2023-03-22T01:14:32.034Z,50369.97
2023-03-22T01:17:00.775Z,50357.17
2023-03-22T01:19:29.191Z,50373.96
2023-03-22T01:21:57.957Z,50367.97
2023-03-22T01:24:27.487Z,50351.18
2023-03-22T01:26:56.134Z,50364.77
2023-03-22T01:29:25.453Z,50353.57
2023-03-22T01:31:54.296Z,50351.57
2023-03-22T01:34:22.661Z,50356.37
2023-03-22T01:36:51.317Z,50342.38
2023-03-22T01:39:19.996Z,50344.38
2023-03-22T01:41:49.443Z,50356.77
2023-03-22T01:44:20.779Z,50350.77
2023-03-22T01:46:51.460Z,50349.57
2023-03-22T01:49:27.769Z,50338.38
2023-03-22T01:52:02.545Z,50349.97
2023-03-22T01:55:00.584Z,50368.37
2023-03-22T01:57:44.043Z,50357.57
2023-03-22T02:00:19.048Z,50370.37
2023-03-22T02:03:07.464Z,50356.77
2023-03-22T02:05:41.081Z,50369.57
2023-03-22T02:08:09.496Z,50365.97
2023-03-22T02:10:52.209Z,50367.17
2023-03-22T02:13:42.511Z,50360.38
2023-03-22T02:16:57.306Z,50361.57
2023-03-22T02:19:54.409Z,50357.18
2023-03-22T02:22:47.719Z,50361.57
2023-03-22T02:25:31.340Z,50379.16
2023-03-22T02:28:17.107Z,50383.56
2023-03-22T02:30:51.349Z,50367.57
2023-03-22T02:34:04.909Z,50373.17
2023-03-22T02:37:00.610Z,50382.36
2023-03-22T02:40:00.886Z,50371.17
2023-03-22T02:42:34.903Z,50364.37
2023-03-22T02:45:18.605Z,50363.17
2023-03-22T02:47:58.835Z,50362.38
2023-03-22T02:50:29.945Z,50354.38
2023-03-22T02:53:07.644Z,50361.97
2023-03-22T02:55:51.589Z,50358.77
2023-03-22T02:58:45.806Z,50375.17
2023-03-22T03:01:23.878Z,50367.17
2023-03-22T03:03:57.475Z,50368.37
2023-03-22T03:06:31.178Z,50369.96
2023-03-22T03:09:05.320Z,50349.98
2023-03-22T03:11:33.745Z,50364.37
2023-03-22T03:14:02.170Z,50371.17
2023-03-22T03:16:34.975Z,50373.57
2023-03-22T03:19:14.948Z,50353.18
2023-03-22T03:22:03.227Z,50362.77
2023-03-22T03:25:04.444Z,50378.37
2023-03-22T03:27:41.310Z,50356.77
2023-03-22T03:30:14.843Z,50355.98
2023-03-22T03:32:52.886Z,50375.16
2023-03-22T03:35:29.370Z,50373.57
2023-03-22T03:38:04.173Z,50363.97
2023-03-22T03:40:38.327Z,50370.77
2023-03-22T03:43:07.644Z,50354.38
2023-03-22T03:45:37.888Z,50359.57
2023-03-22T03:48:14.904Z,50356.38
2023-03-22T03:50:47.506Z,50366.37
2023-03-22T03:53:15.865Z,50365.97
2023-03-22T03:55:44.505Z,50353.57
2023-03-22T03:58:13.178Z,50362.77
2023-03-22T04:00:43.617Z,50357.98
2023-03-22T04:03:25.432Z,50351.57
2023-03-22T04:06:10.888Z,50367.57
2023-03-22T04:08:41.918Z,50384.76
2023-03-22T04:11:10.386Z,50374.37
2023-03-22T04:13:40.107Z,50384.37
2023-03-22T04:16:12.135Z,50388.36
2023-03-22T04:18:40.418Z,50364.77
2023-03-22T04:21:11.951Z,50365.98
2023-03-22T04:23:46.949Z,50385.16
2023-03-22T04:26:16.029Z,50377.96
2023-03-22T04:28:56.866Z,50364.38
2023-03-22T04:31:26.158Z,50370.37
2023-03-22T04:34:05.809Z,50363.97
2023-03-22T04:36:50.951Z,50363.17
2023-03-22T04:39:45.890Z,50383.16
2023-03-22T04:42:40.674Z,50373.17
2023-03-22T04:45:29.348Z,50371.17
2023-03-22T04:48:01.082Z,50365.57
2023-03-22T04:50:29.599Z,50351.57
2023-03-22T04:53:01.199Z,50367.97
2023-03-22T04:55:30.174Z,50370.37
2023-03-22T04:57:59.127Z,50387.96
2023-03-22T05:00:30.415Z,50382.37
2023-03-22T05:02:58.930Z,50379.96
2023-03-22T05:05:51.072Z,50372.37
2023-03-22T05:08:21.839Z,50382.77
2023-03-22T05:10:50.386Z,50379.96
2023-03-22T05:13:24.303Z,50371.17
2023-03-22T05:15:53.775Z,50367.57
2023-03-22T05:18:26.516Z,50370.77
2023-03-22T05:20:57.311Z,50363.97
2023-03-22T05:23:25.566Z,50373.96
2023-03-22T05:25:58.689Z,50365.17
2023-03-22T05:28:29.577Z,50353.57
2023-03-22T05:31:22.278Z,50360.37
2023-03-22T05:33:57.763Z,50361.18
2023-03-22T05:36:29.925Z,50367.97
2023-03-22T05:39:14.986Z,50368.37
2023-03-22T05:41:43.487Z,50373.57
2023-03-22T05:44:11.850Z,50377.97
2023-03-22T05:46:43.935Z,50356.77
2023-03-22T05:49:38.389Z,50367.97
2023-03-22T05:52:09.585Z,50355.97
2023-03-22T05:55:08.055Z,50344.38
2023-03-22T05:57:36.573Z,50367.97
2023-03-22T06:00:13.545Z,50340.38
2023-03-22T06:02:46.979Z,50357.97
2023-03-22T06:05:17.672Z,50352.38
2023-03-22T06:07:46.671Z,50361.97
2023-03-22T06:10:20.076Z,50353.57
2023-03-22T06:12:48.432Z,50351.57
2023-03-22T06:15:24.022Z,50354.38
2023-03-22T06:18:04.055Z,50364.37
2023-03-22T06:20:36.472Z,50348.78
2023-03-22T06:23:10.341Z,50372.37
2023-03-22T06:25:39.937Z,50363.18
2023-03-22T06:28:08.953Z,50372.76
2023-03-22T06:30:39.107Z,50363.18
2023-03-22T06:33:26.686Z,50356.38
2023-03-22T06:36:02.090Z,50357.98
2023-03-22T06:39:10.332Z,50354.38
2023-03-22T06:41:39.178Z,50356.37
2023-03-22T06:44:07.498Z,50350.77
2023-03-22T06:46:57.226Z,50352.77
2023-03-22T06:49:44.460Z,50360.38
2023-03-22T06:52:17.757Z,50355.57
2023-03-22T06:54:46.443Z,50358.37
2023-03-22T06:57:14.719Z,50330.38
2023-03-22T06:59:42.939Z,50337.98
2023-03-22T07:02:13.076Z,50346.77
2023-03-22T07:04:43.468Z,50346.38
2023-03-22T07:07:12.183Z,50336.38
2023-03-22T07:09:40.558Z,50354.38
2023-03-22T07:12:10.055Z,50358.77
2023-03-22T07:14:38.755Z,50353.98
2023-03-22T07:17:23.723Z,50360.77
2023-03-22T07:19:52.052Z,50336.38
2023-03-22T07:22:23.276Z,50346.38
2023-03-22T07:24:57.272Z,50336.38
2023-03-22T07:27:27.858Z,50325.59
2023-03-22T07:29:56.681Z,50341.57
2023-03-22T07:32:25.095Z,50341.18
2023-03-22T07:35:04.594Z,50326.38
2023-03-22T07:37:34.078Z,50339.57
2023-03-22T07:40:04.565Z,50347.18
2023-03-22T07:42:34.817Z,50341.57
2023-03-22T07:45:07.126Z,50352.38
2023-03-22T07:47:41.720Z,50345.57
2023-03-22T07:50:19.542Z,50349.57
2023-03-22T07:52:52.656Z,50337.98
2023-03-22T07:55:21.079Z,50342.77
2023-03-22T07:57:49.912Z,50345.57
2023-03-22T08:00:18.727Z,50342.38
2023-03-22T08:02:54.156Z,50337.98
2023-03-22T08:05:47.476Z,50336.78
2023-03-22T08:08:16.079Z,50335.98
2023-03-22T08:10:51.834Z,50351.98
2023-03-22T08:13:20.558Z,50343.18
2023-03-22T08:15:49.445Z,50333.98
2023-03-22T08:18:19.821Z,50339.18
2023-03-22T08:20:54.260Z,50330.38
2023-03-22T08:23:38.396Z,50349.18
2023-03-22T08:26:28.747Z,50347.98
2023-03-22T08:28:59.857Z,50344.77
2023-03-22T08:31:30.162Z,50337.98
2023-03-22T08:33:58.853Z,50346.38
2023-03-22T08:36:29.240Z,50335.98
2023-03-22T08:39:04.535Z,50361.17
2023-03-22T08:41:44.535Z,50351.97
2023-03-22T08:44:13.486Z,50341.58
2023-03-22T08:46:41.960Z,50358.77
2023-03-22T08:49:10.734Z,50354.37
2023-03-22T08:51:47.979Z,50345.98
2023-03-22T08:54:33.696Z,50340.78
2023-03-22T08:57:04.062Z,50345.18
2023-03-22T08:59:57.868Z,50338.77
2023-03-22T09:02:46.458Z,50333.98
2023-03-22T09:05:14.806Z,50335.58
2023-03-22T09:07:43.188Z,50348.77
2023-03-22T09:10:24.394Z,50334.78
2023-03-22T09:12:53.677Z,50337.18
2023-03-22T09:15:22.109Z,50355.18
2023-03-22T09:18:03.899Z,50334.78
2023-03-22T09:20:32.142Z,50336.38
2023-03-22T09:23:00.883Z,50327.58
2023-03-22T09:25:29.402Z,50325.18
2023-03-22T09:27:58.035Z,50319.18
2023-03-22T09:30:27.614Z,50344.77
2023-03-22T09:32:56.083Z,50331.98
2023-03-22T09:35:24.674Z,50338.77
2023-03-22T09:37:59.134Z,50343.98
2023-03-22T09:40:30.799Z,50325.98
2023-03-22T09:43:06.064Z,50339.57
2023-03-22T09:45:41.235Z,50339.57
2023-03-22T09:48:19.612Z,50332.78
2023-03-22T09:50:53.656Z,50335.98
2023-03-22T09:53:27.053Z,50330.38
2023-03-22T09:56:10.243Z,50338.38
2023-03-22T09:59:06.752Z,50333.98
2023-03-22T10:02:00.675Z,50361.57
2023-03-22T10:04:41.001Z,50345.57
2023-03-22T10:07:28.910Z,50351.18
2023-03-22T10:10:19.106Z,50317.98
2023-03-22T10:13:14.940Z,50317.59
2023-03-22T10:15:56.417Z,50329.18
2023-03-22T10:18:43.832Z,50331.18
2023-03-22T10:21:13.790Z,50325.98
2023-03-22T10:23:47.326Z,50339.57
2023-03-22T10:26:34.751Z,50334.38
2023-03-22T10:29:09.892Z,50327.58
2023-03-22T10:31:42.474Z,50318.38
2023-03-22T10:34:37.276Z,50354.38
2023-03-22T10:37:07.680Z,50346.38
2023-03-22T10:39:40.079Z,50327.18
2023-03-22T10:42:15.734Z,50329.18
2023-03-22T10:44:55.096Z,50316.78
2023-03-22T10:47:37.746Z,50338.78
2023-03-22T10:50:13.677Z,50333.58
2023-03-22T10:52:55.110Z,50321.18
2023-03-22T10:55:24.630Z,50321.98
2023-03-22T10:58:15.472Z,50327.18
2023-03-22T11:00:57.719Z,50337.18
2023-03-22T11:03:32.294Z,50302.39
2023-03-22T11:06:06.526Z,50308.39
2023-03-22T11:08:45.722Z,50317.98
2023-03-22T11:11:27.935Z,50310.79
2023-03-22T11:14:07.785Z,50328.38
2023-03-22T11:17:00.415Z,50333.18
2023-03-22T11:19:34.282Z,50312.79
2023-03-22T11:22:07.333Z,50328.38
2023-03-22T11:24:36.171Z,50314.39
2023-03-22T11:27:19.882Z,50330.38
2023-03-22T11:29:53.476Z,50326.38
2023-03-22T11:32:37.736Z,50322.38
2023-03-22T11:35:16.928Z,50314.79
2023-03-22T11:37:51.112Z,50320.79
2023-03-22T11:40:31.707Z,50345.18
2023-03-22T11:43:27.265Z,50328.78
2023-03-22T11:45:58.242Z,50334.38
2023-03-22T11:48:29.534Z,50336.78
2023-03-22T11:51:13.789Z,50324.78
2023-03-22T11:53:55.729Z,50325.58
2023-03-22T11:56:29.270Z,50326.38
2023-03-22T11:59:12.962Z,50325.59
2023-03-22T12:01:49.183Z,50321.98
2023-03-22T12:04:27.996Z,50319.59
2023-03-22T12:07:03.532Z,50333.98
2023-03-22T12:09:41.493Z,50330.78
2023-03-22T12:12:16.030Z,50322.38
2023-03-22T12:14:52.615Z,50340.38
2023-03-22T12:17:29.446Z,50325.98
2023-03-22T12:20:22.589Z,50327.18
2023-03-22T12:22:54.366Z,50331.58
2023-03-22T12:25:29.512Z,50343.57
2023-03-22T12:28:03.751Z,50324.78
2023-03-22T12:30:41.027Z,50334.78
2023-03-22T12:33:25.121Z,50336.78
2023-03-22T12:35:59.206Z,50347.57
2023-03-22T12:38:46.387Z,50330.38
2023-03-22T12:41:37.916Z,50323.58
2023-03-22T12:44:18.965Z,50337.98
2023-03-22T12:46:50.135Z,50338.38
2023-03-22T12:49:40.686Z,50323.18
2023-03-22T12:52:37.605Z,50318.39
2023-03-22T12:55:37.092Z,50329.58
2023-03-22T12:58:07.487Z,50340.38
2023-03-22T13:00:45.499Z,50327.58
2023-03-22T13:03:17.652Z,50317.59
2023-03-22T13:05:50.280Z,50335.58
2023-03-22T13:08:23.664Z,50328.38
2023-03-22T13:11:01.525Z,50333.98
2023-03-22T13:13:29.889Z,50330.78
2023-03-22T13:16:22.809Z,50335.18
2023-03-22T13:18:51.130Z,50345.18
2023-03-22T13:21:26.815Z,50335.58
2023-03-22T13:24:10.585Z,50347.98
2023-03-22T13:26:47.748Z,50338.38
2023-03-22T13:29:19.142Z,50326.38
2023-03-22T13:31:58.810Z,50333.18
2023-03-22T13:34:38.496Z,50325.18
2023-03-22T13:37:22.818Z,50345.98
2023-03-22T13:39:52.100Z,50344.77
2023-03-22T13:42:29.859Z,50326.78
2023-03-22T13:45:04.036Z,50333.98
2023-03-22T13:47:45.482Z,50332.78
2023-03-22T13:50:25.403Z,50356.38
2023-03-22T13:53:07.565Z,50343.18
2023-03-22T13:55:47.331Z,50337.57
2023-03-22T13:58:36.399Z,50339.18
2023-03-22T14:01:47.954Z,50342.77
2023-03-22T14:04:42.762Z,50334.38
2023-03-22T14:07:20.345Z,50336.38
2023-03-22T14:09:53.427Z,50341.98
2023-03-22T14:12:28.166Z,50329.98
2023-03-22T14:15:01.214Z,50317.98
2023-03-22T14:17:35.660Z,50337.98
2023-03-22T14:20:12.376Z,50333.98
